Provo, UT

7:56 AM MDT on August 23, 2014 (GMT -0600)
Provo Municipal | Change Station
CLOSE
Current Station
Airport
Location: Provo,
Elevation: 4495 ft
Nearby Weather Stations

Elev 4495 ft 40.22 °N, 111.72 °W | Updated 1 hour ago

Light Rain
Light Rain
52 °F
Feels Like 52 °F
N
12
Wind Variable Wind from South

Today
High -- | Low -- °F
--% Chance of Precip.
Yesterday
High -- | Low -- °F
Precip. -- in
6:45 AM 8:12 PM
Waning Crescent, 4% visible
Pressure 30.08 in
Visibility 15.0 miles
Clouds Few 4000 ft
Scattered Clouds 8000 ft
Overcast 11000 ft
Dew Point 46 °F
Humidity 82%
Rainfall 0.74 in
Snow Depth 1 in
UV 0 out of 12
Pollen 7.50 out of 12
Air Quality Not available.
Flu Activity Not available.
METAR KPVU 231249Z 18010KT 15SM -RA FEW040 SCT080 OVC110 11/08 A3008

More Conditions Fewer Conditions

Pressure 30.08 in
Visibility 15.0 miles
Clouds Few 4000 ft
Scattered Clouds 8000 ft
Overcast 11000 ft
Dew Point 46 °F
Humidity 82%
Rainfall 0.74 in
Snow Depth 1 in
UV 0 out of 12
Pollen 7.50 out of 12
Air Quality Not available.
Flu Activity Not available.
METAR KPVU 231249Z 18010KT 15SM -RA FEW040 SCT080 OVC110 11/08 A3008

More Conditions Fewer Conditions

10-Day Weather Forecast

Almanac

Astronomy

Aug. 23, 2014 Rise Set
Actual Time 6:45 AM MDT 8:12 PM MDT
Civil Twilight 6:17 AM MDT 8:40 PM MDT
Nautical Twilight 5:43 AM MDT 9:14 PM MDT
Astronomical Twilight 5:06 AM MDT 9:50 PM MDT
Moon 5:05 AM MDT 6:59 PM MDT
Length of Visible Light 14h 23m
Length of Day
13h 26m
Tomorrow will be 2m 28s shorter.
Waning Crescent, 4% of the Moon is Illuminated
Today
Waning Crescent
Aug 25
New
Sep 2
First Quarter
Sep 8
Full
Sep 15
Last Quarter

Today's Extremes

State Highs State Lows

Community

WunderPhotos

Upload Photos

1,746,455 photos uploaded!

WunderBlogs® & News

By Dr. Jeff Masters
Director of Meteorology, Weather Underground
By Kari Strenfel
Meteorologist, Weather Underground
By Christopher C. Burt
Weather Historian, Weather Underground
August 23, 2014
August 23, 2014
August 23, 2014

Nearby

Snow Depth

Station Depth Elevation
Cascade Mountain 1 in 7768 ft
Payson R.S. 0 in 8050 ft
Snowbird 0 in 9640 ft
Daniels-Strawberry 0 in 8000 ft
Strawberry Divide 1 in 8400 ft

Earthquake Activity

City Distance Mag. Time & Date
No recent earthquake activity has been reported nearby.
Minimum magnitude displayed is 2.5.

Coastal Water Temperatures

Place Temperature
No Stations Reporting

Nearby Weather Stations